Aviation Digital Data Service (ADDS)

Output produced by METARs form (2140 UTC 19 December 2014)
found at http://aviationweather.gov/adds/metars/
 
KPSM 191720Z 1918/2018 32009KT P6SM SCT035 
     FM192100 34006KT P6SM SCT050